KRBD/RBD METAR and TAF weather

Enter ICAO airport designator
Station Type Date Time Source
KRBD METAR 2018/12/10 01:53 UTC NOAA

KRBD 100153Z 32007KT 10SM CLR 06/00 A3034 RMK AO2 SLP274 T00560000 PNO $


Station Type Date Time Source
KRBD Decoded METAR 2018/12/10 01:53 UTC NOAA

DALLAS EXECUTIVE AIRPORT, TX, United States (KRBD) 32-41N 096-52W 203M
Dec 09, 2018 - 08:53 PM EST / 2018.12.10 0153 UTC
Wind: from the NW (320 degrees) at 8 MPH (7 KT):0
Visibility: 10 mile(s):0
Sky conditions: clear
Temperature: 42.1 F (5.6 C)
Dew Point: 32.0 F (0.0 C)
Relative Humidity: 67%
Pressure (altimeter): 30.34 in. Hg (1027 hPa)
ob: KRBD 100153Z 32007KT 10SM CLR 06/00 A3034 RMK AO2 SLP274 T00560000 PNO
cycle: 2

Station Type Date Time Source
KRBD TAF UTC NOAA

Error!


Example: see airport list